Frostburg, MD (21532)

11:13 AM EST on December 04, 2016 (GMT -0500)
| | Change Station
Active Advisory: Winter Weather Advisory

Elev -9999 ft 0.00 °N, 0.00 °E | Updated

Partly Cloudy
Partly Cloudy
37 °F
Feels Like 33 °F
N
5
Wind Variable Wind from SE
Gusts mph

Today
High -- | Low -- °F
--% Chance of Precip.
Yesterday
High -- | Low -- °F
Precip. -- in
Pressure 30.24 in
Visibility 10.0 miles
Clouds Clear
Windchill 33 °F
Dew Point 25 °F
Humidity 63%
Rainfall --
Snow Depth Not available.
7:20 AM 4:51 PM
Waxing Crescent, 23% visible
METAR KHMZ 041555Z AUTO 00000KT 10SM CLR 03/M03 A3024 RMK AO2 T00271029
Pressure 30.24 in
Visibility 10.0 miles
Clouds Clear
Windchill 33 °F
Dew Point 25 °F
Humidity 63%
Rainfall --
Snow Depth Not available.
7:20 AM 4:51 PM
Waxing Crescent, 23% visible
METAR KHMZ 041555Z AUTO 00000KT 10SM CLR 03/M03 A3024 RMK AO2 T00271029

10-Day Weather Forecast

Almanac

Astronomy

Dec. 04, 2016 Rise Set
Actual Time
Civil Twilight
Nautical Twilight
Astronomical Twilight
Moon
Length of Visible Light
Length of Day
Tomorrow will be .
, % of the Moon is Illuminated

Today's Extremes

State Highs State Lows

Community

WunderPhotos

Upload Photos

1,955,616 photos uploaded!

WunderBlog® & News

Nearby

Air Quality

  Air Quality AQ Index Pollutant
Not available.

Snow Depth

Station Depth Elevation

Earthquake Activity

City Distance Mag. Time & Date
Minimum magnitude displayed is 2.5.

Coastal Water Temperatures

Place Temperature

Stations

Nearby Weather Stations

Station Location Temp. Windchill Dew Point Humidity Wind Precip. Elev Updated Type
                   

Watches & Warnings

Winter Weather Advisory
Issued: 10:42 AM EST Dec. 4, 2016 – National Weather Service

... Winter Weather Advisory remains in effect from 5 PM this
afternoon to 6 am EST Monday...

* precipitation type... snow... sleet and freezing rain.

* Accumulations... less than an inch of snow and sleet. Ice
accumulation from freezing rain a trace to one tenth of an
inch.

* Timing... a wintry mix of snow... sleet and freezing rain will
overspread the area between 5 PM and 9 PM this evening.
Precipitation will change to freezing rain late this evening
before ending toward Monday morning.

* Impacts... untreated roads and sidewalks will become slick and
hazardous due to ice and snow.

* Winds... south to southeast around 10 to 15 mph with gusts
around 25 mph.

* Temperatures... lower 30s.

Precautionary/preparedness actions...

A Winter Weather Advisory means that periods of snow... sleet...
and freezing rain will cause travel difficulties. Be prepared for
slippery roads and limited visibilities... and use caution while
driving.